Stourport-on-Severn, United Kingdom
Current Conditions -  °F | °C
As of 10:50 AM on Friday 31 Oct 2014 (Local Time) from EGBB Reporting Station
Clear Clear  
Wind Chill: 61°   Ceiling: Unl
Heat Index: 61°   Visibility: 4mi
Dew Point: 57°   Wind: 12mph
Humidity: 88%   Direction: 150°SSE
Pressure: 29.97"   Gusts: NA
Location:  52.33°N, 2.28°W
Report Text: EGBB 311050Z 15010KT 6000 NSC 16/14 Q1015
Loading
Personal Weather Stations






























Interactive Weather Map
Tropical Storm Tracking
New forecast layout! Learn more

10-Day Weather Forecast

Advertisements
Track Severe Weather on mobile